Time;durP1;ratioP1;P1;durP2;ratioP2;P2;SDS_P1;SDS_P2;PMS_P1;PMS_P2;Temp;Humidity;BMP_temperature;BMP_pressure;BME280_temperature;BME280_humidity;BME280_pressure;Samples;Min_cycle;Max_cycle;Signal;HPM_P1;HPM_P2
2022/04/26 03:37:32;;;;;;;5.75;2.00;;;;;;;;;;4998091;28;20038;-92
2022/04/26 03:39:59;;;;;;;5.50;2.15;;;;;;;;;;4980143;28;20050;-93
2022/04/26 03:42:25;;;;;;;11.43;4.07;;;;;;;;;;4980275;28;20118;-92
2022/04/26 03:44:51;;;;;;;7.90;4.25;;;;;;;;;;4980160;28;20019;-93
2022/04/26 03:47:17;;;;;;;11.25;4.72;;;;;;;;;;4979940;28;20037;-93
2022/04/26 03:49:43;;;;;;;10.05;4.40;;;;;;;;;;4980004;28;20113;-92
2022/04/26 03:52:10;;;;;;;9.77;4.40;;;;;;;;;;4980247;28;20113;-92
2022/04/26 03:54:36;;;;;;;8.25;3.85;;;;;;;;;;4980048;28;20031;-93
2022/04/26 03:57:02;;;;;;;8.15;3.70;;;;;;;;;;4980224;28;20142;-93
2022/04/26 03:59:28;;;;;;;11.32;4.00;;;;;;;;;;4979761;28;20058;-93
2022/04/26 04:01:54;;;;;;;9.68;3.83;;;;;;;;;;4979699;28;20117;-93
2022/04/26 04:04:20;;;;;;;7.13;4.18;;;;;;;;;;4980008;28;20117;-94
2022/04/26 04:06:47;;;;;;;8.90;3.10;;;;;;;;;;4979705;28;20015;-93
2022/04/26 04:09:13;;;;;;;8.20;2.80;;;;;;;;;;4979632;28;20046;-93
2022/04/26 04:11:39;;;;;;;11.45;3.55;;;;;;;;;;4979511;28;20030;-93
2022/04/26 04:14:05;;;;;;;6.57;2.60;;;;;;;;;;4979576;28;20032;-94
2022/04/26 04:16:31;;;;;;;6.38;3.10;;;;;;;;;;4979623;28;20125;-94
2022/04/26 04:21:43;;;;;;;6.53;3.35;;;;;;;;;;4996723;28;20201;-93
2022/04/26 04:24:09;;;;;;;7.35;3.03;;;;;;;;;;4979288;28;20025;-93
2022/04/26 04:26:35;;;;;;;7.78;3.58;;;;;;;;;;4979467;28;20363;-94
2022/04/26 04:29:02;;;;;;;8.93;3.95;;;;;;;;;;4979372;28;20088;-94
2022/04/26 04:31:28;;;;;;;9.65;3.95;;;;;;;;;;4979359;28;20026;-93
2022/04/26 04:33:54;;;;;;;7.57;3.30;;;;;;;;;;4979103;28;20026;-93
2022/04/26 04:36:21;;;;;;;8.68;3.35;;;;;;;;;;4979274;28;20489;-93
2022/04/26 04:38:47;;;;;;;12.07;4.00;;;;;;;;;;4979050;28;20026;-92
2022/04/26 04:41:14;;;;;;;11.60;3.42;;;;;;;;;;4979104;28;20030;-92
2022/04/26 04:43:41;;;;;;;7.13;3.60;;;;;;;;;;4979165;28;20022;-95
2022/04/26 04:46:07;;;;;;;13.77;3.60;;;;;;;;;;4979427;28;20022;-96
2022/04/26 04:48:33;;;;;;;10.82;3.47;;;;;;;;;;4979441;28;20028;-95
2022/04/26 04:50:59;;;;;;;6.78;3.92;;;;;;;;;;4979113;28;20027;-95
2022/04/26 04:53:25;;;;;;;9.80;3.50;;;;;;;;;;4979184;28;20034;-95
2022/04/26 04:55:51;;;;;;;8.88;4.32;;;;;;;;;;4978993;28;20066;-94
2022/04/26 04:58:18;;;;;;;12.07;3.75;;;;;;;;;;4979137;28;20027;-94
2022/04/26 05:00:44;;;;;;;10.40;3.50;;;;;;;;;;4978034;28;20073;-94
2022/04/26 05:03:10;;;;;;;9.88;3.50;;;;;;;;;;4978934;28;20502;-94
2022/04/26 05:05:37;;;;;;;9.85;4.00;;;;;;;;;;4978876;28;20084;-95
2022/04/26 05:08:03;;;;;;;13.48;3.45;;;;;;;;;;4978433;28;20129;-95
2022/04/26 05:10:33;;;;;;;9.32;3.70;;;;;;;;;;4978772;28;20026;-94
2022/04/26 05:12:59;;;;;;;8.13;3.75;;;;;;;;;;4978529;28;20030;-95
2022/04/26 05:15:25;;;;;;;15.05;3.70;;;;;;;;;;4978681;28;20030;-95
2022/04/26 05:17:52;;;;;;;9.52;3.80;;;;;;;;;;4978691;28;20049;-95
2022/04/26 05:20:18;;;;;;;14.82;3.83;;;;;;;;;;4978509;28;20026;-94
2022/04/26 05:25:29;;;;;;;9.05;4.55;;;;;;;;;;4995848;28;20498;-94
2022/04/26 05:27:55;;;;;;;10.80;3.92;;;;;;;;;;4978412;28;20027;-94
2022/04/26 05:30:21;;;;;;;11.52;4.53;;;;;;;;;;4978335;28;20018;-94
2022/04/26 05:32:47;;;;;;;12.02;5.13;;;;;;;;;;4978404;28;20065;-94
2022/04/26 05:35:13;;;;;;;11.90;5.03;;;;;;;;;;4978207;28;20084;-95
2022/04/26 05:37:39;;;;;;;11.18;6.43;;;;;;;;;;4978380;28;20500;-95
2022/04/26 05:40:06;;;;;;;15.30;5.80;;;;;;;;;;4977975;28;20459;-94
2022/04/26 05:42:35;;;;;;;17.52;5.85;;;;;;;;;;4977983;28;20032;-95
2022/04/26 05:45:02;;;;;;;11.23;4.38;;;;;;;;;;4977998;28;20081;-95
2022/04/26 05:47:28;;;;;;;12.88;4.60;;;;;;;;;;4978028;28;20022;-95
2022/04/26 05:49:56;;;;;;;11.93;4.20;;;;;;;;;;4978801;28;20022;-96
2022/04/26 05:52:24;;;;;;;8.77;4.10;;;;;;;;;;4979417;28;20030;-96
2022/04/26 05:54:50;;;;;;;14.60;3.58;;;;;;;;;;4979466;28;20023;-95
2022/04/26 05:57:16;;;;;;;15.77;3.95;;;;;;;;;;4978233;28;20529;-95
2022/04/26 05:59:42;;;;;;;9.00;2.75;;;;;;;;;;4977955;28;20470;-94
2022/04/26 06:02:08;;;;;;;8.95;2.53;;;;;;;;;;4978200;28;20045;-95
2022/04/26 06:04:38;;;;;;;10.70;2.58;;;;;;;;;;4980429;28;20125;-96
2022/04/26 06:07:04;;;;;;;11.13;2.75;;;;;;;;;;4979020;28;20065;-94
2022/04/26 06:09:31;;;;;;;6.30;1.98;;;;;;;;;;4977581;28;20376;-93
2022/04/26 06:11:58;;;;;;;9.40;2.70;;;;;;;;;;4980599;28;20486;-94
2022/04/26 06:14:24;;;;;;;15.23;2.92;;;;;;;;;;4981634;28;20030;-94
2022/04/26 06:16:50;;;;;;;11.35;3.22;;;;;;;;;;4981814;28;20026;-95
2022/04/26 06:19:16;;;;;;;12.50;3.10;;;;;;;;;;4981879;28;20036;-95
2022/04/26 06:21:43;;;;;;;10.70;2.70;;;;;;;;;;4984905;28;20112;-96
2022/04/26 06:24:09;;;;;;;13.10;3.47;;;;;;;;;;4982675;28;20026;-95
2022/04/26 06:26:35;;;;;;;10.20;2.58;;;;;;;;;;4982405;28;20029;-95
2022/04/26 06:29:01;;;;;;;7.90;2.67;;;;;;;;;;4984001;28;20018;-95
2022/04/26 06:31:27;;;;;;;23.63;8.13;;;;;;;;;;4985705;28;20030;-96
2022/04/26 06:33:53;;;;;;;14.23;5.63;;;;;;;;;;4981565;28;20023;-95
2022/04/26 06:36:20;;;;;;;13.30;4.10;;;;;;;;;;4981623;28;20430;-95
2022/04/26 06:38:46;;;;;;;14.77;3.63;;;;;;;;;;4981756;28;20018;-94
2022/04/26 06:41:12;;;;;;;9.73;4.07;;;;;;;;;;4981261;28;20052;-94
2022/04/26 06:43:39;;;;;;;12.75;3.70;;;;;;;;;;4981570;28;20019;-94
2022/04/26 06:46:05;;;;;;;12.50;4.55;;;;;;;;;;4981101;28;20036;-94
2022/04/26 06:48:32;;;;;;;13.27;4.80;;;;;;;;;;4981646;28;20026;-95
2022/04/26 06:50:58;;;;;;;16.85;7.50;;;;;;;;;;4984126;28;20117;-94
2022/04/26 06:53:24;;;;;;;11.32;4.65;;;;;;;;;;4981185;28;20117;-94
2022/04/26 06:55:50;;;;;;;14.27;4.22;;;;;;;;;;4980983;28;20422;-93
2022/04/26 06:58:17;;;;;;;12.90;5.30;;;;;;;;;;4980903;28;20565;-94
2022/04/26 07:00:45;;;;;;;10.43;3.22;;;;;;;;;;4980926;28;20041;-94
2022/04/26 07:03:11;;;;;;;13.43;3.60;;;;;;;;;;4980838;28;20050;-95
2022/04/26 07:05:38;;;;;;;13.98;7.10;;;;;;;;;;4980864;28;20097;-94
2022/04/26 07:08:04;;;;;;;20.23;11.63;;;;;;;;;;4980694;28;20628;-93
2022/04/26 07:10:30;;;;;;;19.70;7.70;;;;;;;;;;4980553;28;20026;-94
2022/04/26 07:12:56;;;;;;;11.40;5.90;;;;;;;;;;4980546;28;20034;-93
2022/04/26 07:15:22;;;;;;;12.30;4.95;;;;;;;;;;4980635;28;20061;-94
2022/04/26 07:17:49;;;;;;;12.30;4.40;;;;;;;;;;4980649;28;20022;-94
2022/04/26 07:20:15;;;;;;;10.27;3.30;;;;;;;;;;4980368;28;20125;-94
2022/04/26 07:22:41;;;;;;;8.98;3.38;;;;;;;;;;4980027;28;20434;-95
2022/04/26 07:25:08;;;;;;;11.80;3.03;;;;;;;;;;4980565;28;20033;-94
2022/04/26 07:27:34;;;;;;;12.13;4.45;;;;;;;;;;4980404;28;20068;-94
2022/04/26 07:30:01;;;;;;;15.07;4.28;;;;;;;;;;4980979;28;20022;-94
2022/04/26 07:35:12;;;;;;;11.60;4.85;;;;;;;;;;4998880;28;20060;-96
2022/04/26 07:37:38;;;;;;;14.85;6.32;;;;;;;;;;4980396;28;20053;-94
2022/04/26 07:40:05;;;;;;;9.68;4.13;;;;;;;;;;4980553;28;20022;-93
2022/04/26 07:42:31;;;;;;;12.13;4.03;;;;;;;;;;4980177;28;20109;-94
2022/04/26 07:44:57;;;;;;;12.98;3.90;;;;;;;;;;4980197;28;20161;-92
2022/04/26 07:47:26;;;;;;;7.38;2.50;;;;;;;;;;4979936;28;20038;-94
2022/04/26 07:49:53;;;;;;;8.98;2.60;;;;;;;;;;4980042;28;20092;-94
2022/04/26 07:52:20;;;;;;;9.70;3.33;;;;;;;;;;4979927;28;20027;-94
2022/04/26 07:54:47;;;;;;;8.82;3.15;;;;;;;;;;4979763;28;20065;-94
2022/04/26 07:57:13;;;;;;;9.45;3.95;;;;;;;;;;4980142;28;20034;-93
2022/04/26 07:59:39;;;;;;;9.13;2.95;;;;;;;;;;4982457;28;20399;-93
2022/04/26 08:02:10;;;;;;;6.97;2.78;;;;;;;;;;4981780;28;20041;-94
2022/04/26 08:04:36;;;;;;;10.43;3.30;;;;;;;;;;4983268;28;20018;-94
2022/04/26 08:07:02;;;;;;;11.10;3.40;;;;;;;;;;4982121;28;20023;-95
2022/04/26 08:09:29;;;;;;;11.00;3.80;;;;;;;;;;4966793;28;20514;-95
2022/04/26 08:11:55;;;;;;;15.85;3.90;;;;;;;;;;4964192;28;20042;-94
2022/04/26 08:14:21;;;;;;;10.40;3.85;;;;;;;;;;4965941;28;20030;-95
2022/04/26 08:16:48;;;;;;;15.90;4.50;;;;;;;;;;4966059;28;20118;-95
2022/04/26 08:19:14;;;;;;;12.82;4.40;;;;;;;;;;4967597;28;20118;-95
2022/04/26 08:21:40;;;;;;;10.43;3.65;;;;;;;;;;4966286;28;20074;-94
2022/04/26 08:29:36;;;;;;;13.98;4.47;;;;;;;;;;4981380;28;20054;-95
2022/04/26 08:32:02;;;;;;;12.57;4.60;;;;;;;;;;4961840;28;20030;-93
2022/04/26 08:34:29;;;;;;;14.52;4.18;;;;;;;;;;4960891;28;20026;-94
2022/04/26 08:36:55;;;;;;;13.77;4.45;;;;;;;;;;4960923;28;20085;-93
2022/04/26 08:39:23;;;;;;;11.38;4.10;;;;;;;;;;4959848;28;20121;-94
2022/04/26 08:41:49;;;;;;;11.60;4.28;;;;;;;;;;4960060;28;20033;-93
2022/04/26 08:44:16;;;;;;;17.25;4.80;;;;;;;;;;4959837;28;20118;-93
2022/04/26 08:52:11;;;;;;;14.40;4.28;;;;;;;;;;4977525;28;20557;-94
2022/04/26 08:57:41;;;;;;;14.00;4.97;;;;;;;;;;4977045;28;20062;-94
2022/04/26 09:00:25;;;;;;;13.85;4.35;;;;;;;;;;4959432;28;20030;-95
2022/04/26 09:03:42;;;;;;;9.80;4.07;;;;;;;;;;4958912;28;20034;-95
2022/04/26 09:06:07;;;;;;;14.90;5.20;;;;;;;;;;4904905;28;20062;-95
2022/04/26 09:08:34;;;;;;;17.63;4.90;;;;;;;;;;4959155;28;20415;-94
2022/04/26 09:11:21;;;;;;;14.15;4.85;;;;;;;;;;4959264;28;20119;-94
2022/04/26 09:13:48;;;;;;;13.82;5.43;;;;;;;;;;4958905;28;20495;-95
2022/04/26 09:16:36;;;;;;;10.48;4.47;;;;;;;;;;4959834;28;20034;-95
2022/04/26 09:19:08;;;;;;;15.90;5.80;;;;;;;;;;4959100;28;20507;-95
2022/04/26 09:21:35;;;;;;;10.63;4.88;;;;;;;;;;4958929;28;20050;-94
2022/04/26 09:24:02;;;;;;;13.38;4.88;;;;;;;;;;4959603;28;20034;-94
2022/04/26 09:26:43;;;;;;;12.82;5.13;;;;;;;;;;4959410;28;20027;-95
2022/04/26 09:29:19;;;;;;;14.52;4.93;;;;;;;;;;4960198;28;20033;-95
2022/04/26 09:32:02;;;;;;;12.20;4.95;;;;;;;;;;4958857;28;20030;-94
2022/04/26 09:35:12;;;;;;;15.32;5.65;;;;;;;;;;4959070;28;20035;-94
2022/04/26 09:37:36;;;;;;;11.93;4.20;;;;;;;;;;4970570;28;20031;-94
2022/04/26 09:40:05;;;;;;;14.73;4.15;;;;;;;;;;4958768;28;20062;-94
2022/04/26 09:42:33;;;;;;;11.05;4.05;;;;;;;;;;4959103;28;20027;-95
2022/04/26 09:45:34;;;;;;;12.90;4.65;;;;;;;;;;4959871;28;20468;-94
2022/04/26 09:48:12;;;;;;;9.45;3.80;;;;;;;;;;4942721;28;20405;-95
2022/04/26 09:51:01;;;;;;;13.75;3.90;;;;;;;;;;4959300;28;20599;-95
2022/04/26 09:53:57;;;;;;;14.35;4.70;;;;;;;;;;4959437;28;20031;-94
2022/04/26 09:56:24;;;;;;;8.35;3.83;;;;;;;;;;4886111;28;20035;-94
2022/04/26 10:08:41;;;;;;;;;;;;;;;;;;;;;
2022/04/26 10:11:13;;;;;;;11.35;4.10;;;;;;;;;;4893450;29;20037;-94
2022/04/26 10:13:50;;;;;;;11.68;4.38;;;;;;;;;;4967599;28;20035;-94
2022/04/26 10:16:25;;;;;;;14.45;4.88;;;;;;;;;;4977352;28;20034;-95
2022/04/26 10:19:39;;;;;;;11.30;5.05;;;;;;;;;;4977647;28;20027;-95
2022/04/26 10:22:47;;;;;;;;;;;;;;;;;;;;;
2022/04/26 10:25:14;;;;;;;10.82;3.90;;;;;;;;;;4942861;28;20486;-94
2022/04/26 10:27:40;;;;;;;14.63;4.45;;;;;;;;;;4977939;28;20053;-93
2022/04/26 10:30:06;;;;;;;15.25;3.25;;;;;;;;;;4977329;28;20105;-93
2022/04/26 10:32:43;;;;;;;8.02;3.25;;;;;;;;;;4977888;28;20455;-94
2022/04/26 10:35:24;;;;;;;9.70;2.97;;;;;;;;;;4977413;28;20026;-95
2022/04/26 10:38:28;;;;;;;;;;;;;;;;;;;;;
2022/04/26 10:41:12;;;;;;;10.38;3.60;;;;;;;;;;4994766;28;20026;-94
2022/04/26 10:50:35;;;;;;;13.60;3.80;;;;;;;;;;4935184;29;20076;-92
2022/04/26 10:53:01;;;;;;;10.45;3.95;;;;;;;;;;4935029;29;20297;-93
2022/04/26 10:55:53;;;;;;;10.57;3.20;;;;;;;;;;4934740;29;20362;-93
2022/04/26 10:58:27;;;;;;;12.95;3.70;;;;;;;;;;4965130;28;20494;-93
2022/04/26 11:00:53;;;;;;;8.35;3.50;;;;;;;;;;4981498;28;20598;-92
2022/04/26 11:03:23;;;;;;;18.77;4.15;;;;;;;;;;4980828;28;20077;-93
2022/04/26 11:06:06;;;;;;;15.32;3.80;;;;;;;;;;4980814;28;20134;-92
2022/04/26 11:08:32;;;;;;;7.68;3.40;;;;;;;;;;4971558;28;20046;-93
2022/04/26 11:11:10;;;;;;;8.75;3.17;;;;;;;;;;4961114;28;20037;-93
2022/04/26 11:13:37;;;;;;;13.27;4.32;;;;;;;;;;4961034;28;20058;-92
2022/04/26 11:16:19;;;;;;;9.52;3.50;;;;;;;;;;4961849;28;20031;-92
2022/04/26 11:18:46;;;;;;;9.50;4.00;;;;;;;;;;4961665;28;20114;-94
2022/04/26 11:21:13;;;;;;;11.23;3.50;;;;;;;;;;4960851;28;20023;-93
2022/04/26 11:29:26;;;;;;;11.10;3.78;;;;;;;;;;4978648;28;20506;-93
2022/04/26 11:31:52;;;;;;;9.85;3.35;;;;;;;;;;4962415;28;20363;-93
2022/04/26 11:34:18;;;;;;;13.75;3.65;;;;;;;;;;4961356;28;20053;-92
2022/04/26 11:36:44;;;;;;;9.98;4.00;;;;;;;;;;4961053;28;20050;-92
2022/04/26 11:39:10;;;;;;;8.30;3.42;;;;;;;;;;4960744;28;20488;-93
2022/04/26 11:41:37;;;;;;;10.85;3.30;;;;;;;;;;4960842;28;20058;-92
2022/04/26 11:44:06;;;;;;;9.25;3.47;;;;;;;;;;4960810;28;20027;-93
2022/04/26 11:46:32;;;;;;;9.25;3.00;;;;;;;;;;4960623;28;20061;-94
2022/04/26 11:49:00;;;;;;;10.10;4.00;;;;;;;;;;4960557;28;20019;-93
2022/04/26 11:51:26;;;;;;;9.85;3.47;;;;;;;;;;4960557;28;20026;-93
2022/04/26 11:53:53;;;;;;;12.00;3.50;;;;;;;;;;4960598;28;20022;-94
2022/04/26 11:56:21;;;;;;;7.93;3.38;;;;;;;;;;4960573;28;20027;-93
2022/04/26 11:58:47;;;;;;;10.93;3.17;;;;;;;;;;4960590;28;20077;-94
2022/04/26 12:01:15;;;;;;;9.85;3.65;;;;;;;;;;4960413;28;20031;-93
2022/04/26 12:03:48;;;;;;;11.18;3.75;;;;;;;;;;4960492;28;20091;-93
2022/04/26 12:06:17;;;;;;;6.55;3.58;;;;;;;;;;4960921;28;20015;-93
2022/04/26 12:08:43;;;;;;;10.55;3.60;;;;;;;;;;4959769;28;20051;-94
2022/04/26 12:11:20;;;;;;;9.48;4.00;;;;;;;;;;4960133;28;20049;-94
2022/04/26 12:13:57;;;;;;;8.38;4.10;;;;;;;;;;4960391;28;20027;-93
2022/04/26 12:16:24;;;;;;;5.72;3.60;;;;;;;;;;4960667;28;20118;-94
2022/04/26 12:18:51;;;;;;;9.57;4.63;;;;;;;;;;4960140;28;20027;-95
2022/04/26 12:21:17;;;;;;;13.73;4.45;;;;;;;;;;4960184;28;20475;-93
2022/04/26 12:23:44;;;;;;;13.75;4.47;;;;;;;;;;4960170;28;20031;-93
2022/04/26 12:26:10;;;;;;;10.95;3.83;;;;;;;;;;4960233;28;20020;-93
2022/04/26 12:28:47;;;;;;;7.05;3.53;;;;;;;;;;4960318;28;20034;-93
2022/04/26 12:31:22;;;;;;;11.60;3.97;;;;;;;;;;4960279;28;20027;-93
2022/04/26 12:43:02;;;;;;;8.02;3.00;;;;;;;;;;4899085;29;20067;-94
2022/04/26 12:58:15;;;;;;;6.18;2.53;;;;;;;;;;4917487;29;20027;-94
2022/04/26 13:01:20;;;;;;;;;;;;;;;;;;;;;
2022/04/26 13:04:20;;;;;;;6.13;2.38;;;;;;;;;;4976877;28;20026;-95
2022/04/26 13:06:46;;;;;;;5.10;2.20;;;;;;;;;;4908310;28;20035;-94
2022/04/26 13:09:12;;;;;;;5.95;2.28;;;;;;;;;;4959085;28;20038;-94
2022/04/26 13:17:51;;;;;;;7.57;2.20;;;;;;;;;;4898635;29;20035;-95
2022/04/26 13:29:41;;;;;;;7.43;2.65;;;;;;;;;;4976115;28;20029;-95
2022/04/26 13:44:43;;;;;;;6.97;2.15;;;;;;;;;;4879566;29;20101;-95
2022/04/26 13:59:59;;;;;;;12.77;3.05;;;;;;;;;;4796971;29;20054;-95
2022/04/26 14:02:25;;;;;;;6.07;2.42;;;;;;;;;;4823636;29;20121;-94
2022/04/26 14:05:23;;;;;;;;;;;;;;;;;;;;;
2022/04/26 14:07:49;;;;;;;9.90;2.92;;;;;;;;;;4979199;28;20049;-93
2022/04/26 14:10:16;;;;;;;9.57;2.85;;;;;;;;;;4977635;28;20501;-94
2022/04/26 14:12:43;;;;;;;3.42;1.60;;;;;;;;;;4977851;28;20030;-94
2022/04/26 14:23:27;;;;;;;6.38;2.33;;;;;;;;;;4995498;28;20038;-94
2022/04/26 14:25:54;;;;;;;7.45;2.42;;;;;;;;;;4977801;28;20021;-94
2022/04/26 14:28:20;;;;;;;7.10;2.40;;;;;;;;;;4977743;28;20027;-94
2022/04/26 14:30:46;;;;;;;5.22;2.00;;;;;;;;;;4977607;28;20121;-95
2022/04/26 14:33:13;;;;;;;6.60;2.10;;;;;;;;;;4979590;28;20120;-95
2022/04/26 14:35:39;;;;;;;6.72;2.40;;;;;;;;;;4981274;28;20030;-95
2022/04/26 14:38:07;;;;;;;12.85;2.80;;;;;;;;;;4983214;28;20034;-95
2022/04/26 14:40:33;;;;;;;10.30;2.70;;;;;;;;;;4982402;28;20030;-96
2022/04/26 14:42:59;;;;;;;9.30;2.53;;;;;;;;;;4981742;28;20062;-94
2022/04/26 14:45:25;;;;;;;8.32;2.42;;;;;;;;;;4981504;28;20026;-94
2022/04/26 14:47:51;;;;;;;7.60;2.50;;;;;;;;;;4981353;28;20074;-94
2022/04/26 14:50:18;;;;;;;14.13;3.85;;;;;;;;;;4981553;28;20160;-95
2022/04/26 14:52:44;;;;;;;7.28;2.30;;;;;;;;;;4981437;28;20160;-96
2022/04/26 14:55:11;;;;;;;9.13;3.25;;;;;;;;;;4981329;28;20030;-94
2022/04/26 14:57:37;;;;;;;8.55;2.80;;;;;;;;;;4981275;28;20026;-94
2022/04/26 15:00:05;;;;;;;8.15;2.00;;;;;;;;;;4980899;28;20038;-95
2022/04/26 15:02:38;;;;;;;6.72;2.33;;;;;;;;;;4980822;28;20553;-95
2022/04/26 15:05:07;;;;;;;6.07;2.00;;;;;;;;;;4981039;28;20493;-95
2022/04/26 15:09:42;;;;;;;3.92;1.98;;;;;;;;;;4981457;28;20038;-94
2022/04/26 15:10:19;;;;;;;7.32;2.13;;;;;;;;;;4998050;28;20041;-93
2022/04/26 15:18:15;;;;;;;6.35;2.10;;;;;;;;;;4998959;28;20037;-96
2022/04/26 15:20:42;;;;;;;6.22;2.15;;;;;;;;;;4980507;28;20125;-95
2022/04/26 15:23:08;;;;;;;6.05;1.85;;;;;;;;;;4980805;28;20367;-94
2022/04/26 15:25:35;;;;;;;5.60;1.77;;;;;;;;;;4980801;28;20394;-95
2022/04/26 15:28:02;;;;;;;8.40;2.22;;;;;;;;;;4980413;28;20026;-94
2022/04/26 15:30:28;;;;;;;8.55;2.17;;;;;;;;;;4980477;28;20026;-95
2022/04/26 15:32:55;;;;;;;10.93;2.28;;;;;;;;;;4980651;28;20036;-95
2022/04/26 15:35:21;;;;;;;7.15;2.25;;;;;;;;;;4980379;28;20037;-95
2022/04/26 15:37:48;;;;;;;5.57;2.28;;;;;;;;;;4980522;28;20022;-95
2022/04/26 15:40:14;;;;;;;6.43;1.95;;;;;;;;;;4981063;28;20030;-96
2022/04/26 15:42:40;;;;;;;9.57;2.33;;;;;;;;;;4980161;28;20031;-95
2022/04/26 15:45:07;;;;;;;4.28;1.98;;;;;;;;;;4979847;28;20109;-95
2022/04/26 15:47:35;;;;;;;9.18;2.42;;;;;;;;;;4980363;28;20031;-95
2022/04/26 15:50:01;;;;;;;10.35;2.38;;;;;;;;;;4982757;28;20046;-94
2022/04/26 15:52:28;;;;;;;6.82;2.20;;;;;;;;;;4980150;28;20027;-95
2022/04/26 15:54:54;;;;;;;7.13;2.20;;;;;;;;;;4980221;28;20034;-94
2022/04/26 15:57:20;;;;;;;3.65;1.95;;;;;;;;;;4979958;28;20526;-95
2022/04/26 15:59:46;;;;;;;4.93;1.60;;;;;;;;;;4980712;28;20026;-95
2022/04/26 16:02:13;;;;;;;5.47;1.80;;;;;;;;;;4979776;28;20030;-95
2022/04/26 16:04:39;;;;;;;4.80;1.95;;;;;;;;;;4980080;28;20022;-95
2022/04/26 16:07:05;;;;;;;5.88;1.45;;;;;;;;;;4979894;28;20117;-94
2022/04/26 16:20:30;;;;;;;14.05;3.33;;;;;;;;;;4997295;28;20033;-94
2022/04/26 16:23:02;;;;;;;5.18;2.60;;;;;;;;;;4979742;28;20026;-94
2022/04/26 16:25:28;;;;;;;7.82;2.40;;;;;;;;;;4979324;28;20050;-93
2022/04/26 16:27:54;;;;;;;6.63;2.78;;;;;;;;;;4979644;28;20026;-94
2022/04/26 16:30:21;;;;;;;7.55;2.13;;;;;;;;;;4979408;28;20545;-93
2022/04/26 16:32:47;;;;;;;10.27;2.72;;;;;;;;;;4979432;28;20030;-92
2022/04/26 16:35:13;;;;;;;7.38;2.25;;;;;;;;;;4979429;28;20042;-94
2022/04/26 16:37:40;;;;;;;10.25;2.53;;;;;;;;;;4979679;28;20085;-94
2022/04/26 16:40:06;;;;;;;6.85;2.53;;;;;;;;;;4979054;28;20049;-92
2022/04/26 16:42:33;;;;;;;5.45;2.47;;;;;;;;;;4979164;28;20033;-93
2022/04/26 16:44:59;;;;;;;5.93;2.50;;;;;;;;;;4979143;28;20482;-93
2022/04/26 16:47:26;;;;;;;9.57;2.78;;;;;;;;;;4979637;28;20391;-94
2022/04/26 16:49:52;;;;;;;9.45;2.50;;;;;;;;;;4978922;28;20027;-93
2022/04/26 16:52:18;;;;;;;8.75;3.05;;;;;;;;;;4978871;28;20474;-94
2022/04/26 16:54:45;;;;;;;7.47;2.92;;;;;;;;;;4978627;28;20650;-94
2022/04/26 16:57:11;;;;;;;7.32;3.03;;;;;;;;;;4978346;28;20026;-94
2022/04/26 16:59:37;;;;;;;8.73;2.78;;;;;;;;;;4978734;28;20022;-94
2022/04/26 17:02:04;;;;;;;6.85;2.80;;;;;;;;;;4978890;28;20034;-94
2022/04/26 17:04:31;;;;;;;8.75;3.92;;;;;;;;;;4978481;28;20475;-94
2022/04/26 17:06:58;;;;;;;10.38;2.90;;;;;;;;;;4978457;28;20049;-94
2022/04/26 17:09:24;;;;;;;8.63;3.30;;;;;;;;;;4978415;28;20061;-95
2022/04/26 17:11:52;;;;;;;8.52;3.55;;;;;;;;;;4978492;28;20418;-94
2022/04/26 17:14:19;;;;;;;14.52;3.80;;;;;;;;;;4978396;28;20030;-94
2022/04/26 17:16:46;;;;;;;10.77;3.67;;;;;;;;;;4978534;28;20064;-94
2022/04/26 17:19:13;;;;;;;10.13;4.32;;;;;;;;;;4978427;28;20050;-94
2022/04/26 17:21:40;;;;;;;9.68;4.00;;;;;;;;;;4978346;28;20056;-94
2022/04/26 17:25:13;;;;;;;9.48;3.10;;;;;;;;;;4978413;28;20448;-94
2022/04/26 17:26:52;;;;;;;8.70;3.53;;;;;;;;;;4995199;28;20037;-93
2022/04/26 17:29:20;;;;;;;7.40;3.00;;;;;;;;;;4978384;28;20386;-94
2022/04/26 17:31:46;;;;;;;11.32;3.45;;;;;;;;;;4978202;28;20030;-94
2022/04/26 17:34:12;;;;;;;8.50;3.33;;;;;;;;;;4978333;28;20034;-93
2022/04/26 17:36:41;;;;;;;18.05;4.25;;;;;;;;;;4977950;28;20034;-93
2022/04/26 17:39:07;;;;;;;8.23;3.47;;;;;;;;;;4977924;28;20030;-94
2022/04/26 17:41:33;;;;;;;9.65;3.92;;;;;;;;;;4978101;28;20030;-94
2022/04/26 17:44:00;;;;;;;10.52;4.25;;;;;;;;;;4978000;28;20121;-92
2022/04/26 17:49:48;;;;;;;;;;;;;;;;;;;;;
2022/04/26 17:52:14;;;;;;;9.57;4.15;;;;;;;;;;4936167;29;20035;-95
2022/04/26 17:57:25;;;;;;;11.48;4.65;;;;;;;;;;4998684;28;20181;-94
2022/04/26 17:59:52;;;;;;;17.63;4.80;;;;;;;;;;4989422;28;20107;-96
2022/04/26 18:02:18;;;;;;;17.98;4.78;;;;;;;;;;4990630;28;20026;-96
2022/04/26 18:04:44;;;;;;;8.95;4.30;;;;;;;;;;4985721;28;20118;-95
2022/04/26 18:07:10;;;;;;;13.40;4.25;;;;;;;;;;4981248;28;20026;-95
2022/04/26 18:09:36;;;;;;;8.20;3.63;;;;;;;;;;4978173;28;20506;-93
2022/04/26 18:12:04;;;;;;;15.60;4.57;;;;;;;;;;4979360;28;20045;-93
2022/04/26 18:14:30;;;;;;;37.17;5.88;;;;;;;;;;4978103;28;20046;-93
2022/04/26 18:16:56;;;;;;;9.75;4.40;;;;;;;;;;4977800;28;20080;-92
2022/04/26 18:19:22;;;;;;;11.20;4.55;;;;;;;;;;4977791;28;20398;-95
2022/04/26 18:21:49;;;;;;;16.40;6.57;;;;;;;;;;4977556;28;20026;-94
2022/04/26 18:24:15;;;;;;;15.43;6.15;;;;;;;;;;4977486;28;20080;-93
2022/04/26 18:26:42;;;;;;;16.55;6.93;;;;;;;;;;4978081;28;20022;-95
2022/04/26 18:29:09;;;;;;;15.27;6.03;;;;;;;;;;4977739;28;20035;-94
2022/04/26 18:31:37;;;;;;;15.93;5.65;;;;;;;;;;4977493;28;20038;-95
2022/04/26 18:34:04;;;;;;;16.17;6.43;;;;;;;;;;4977422;28;20036;-92
2022/04/26 18:36:30;;;;;;;15.43;6.00;;;;;;;;;;4977689;28;20022;-93
2022/04/26 18:38:57;;;;;;;13.13;5.68;;;;;;;;;;4981777;28;20103;-96
2022/04/26 18:41:24;;;;;;;14.05;4.95;;;;;;;;;;4977379;28;20116;-96
2022/04/26 18:43:52;;;;;;;12.90;4.60;;;;;;;;;;4977637;28;20474;-93
2022/04/26 18:46:22;;;;;;;11.48;4.57;;;;;;;;;;4977594;28;20026;-94
2022/04/26 18:48:50;;;;;;;8.70;4.47;;;;;;;;;;4977547;28;20026;-94
2022/04/26 18:51:17;;;;;;;12.38;4.32;;;;;;;;;;4977565;28;20042;-93
2022/04/26 18:53:43;;;;;;;12.25;4.75;;;;;;;;;;4977453;28;20034;-93
2022/04/26 18:56:10;;;;;;;14.00;5.22;;;;;;;;;;4977178;28;20026;-93
2022/04/26 18:58:36;;;;;;;12.93;4.43;;;;;;;;;;4978192;28;20418;-93
2022/04/26 19:01:03;;;;;;;9.65;3.90;;;;;;;;;;4977347;28;20042;-93
2022/04/26 19:03:29;;;;;;;10.80;4.30;;;;;;;;;;4977261;28;20022;-93
2022/04/26 19:05:56;;;;;;;7.38;4.45;;;;;;;;;;4977206;28;20050;-93
2022/04/26 19:08:25;;;;;;;9.88;4.10;;;;;;;;;;4977028;28;20118;-92
2022/04/26 19:13:37;;;;;;;11.30;5.10;;;;;;;;;;4994924;28;20438;-93
2022/04/26 19:16:04;;;;;;;10.23;4.80;;;;;;;;;;4977062;28;20049;-93
2022/04/26 19:18:30;;;;;;;11.70;5.20;;;;;;;;;;4977359;28;20025;-93
2022/04/26 19:20:57;;;;;;;12.70;5.38;;;;;;;;;;4980575;28;20494;-93
2022/04/26 19:23:23;;;;;;;11.18;4.57;;;;;;;;;;4980470;28;20029;-95
2022/04/26 19:25:50;;;;;;;13.40;5.15;;;;;;;;;;4985810;28;20108;-93
2022/04/26 19:28:16;;;;;;;10.85;5.15;;;;;;;;;;4983718;28;20030;-93
2022/04/26 19:30:42;;;;;;;9.57;4.68;;;;;;;;;;4980404;28;20019;-93
2022/04/26 19:33:09;;;;;;;13.30;5.20;;;;;;;;;;4980467;28;20023;-94
2022/04/26 19:35:37;;;;;;;9.38;5.13;;;;;;;;;;4980431;28;20030;-94
2022/04/26 19:38:04;;;;;;;8.93;3.85;;;;;;;;;;4980148;28;20048;-94
2022/04/26 19:40:31;;;;;;;13.25;4.72;;;;;;;;;;4980128;28;20113;-92
2022/04/26 19:42:57;;;;;;;10.80;4.60;;;;;;;;;;4980140;28;20113;-93
2022/04/26 19:45:23;;;;;;;11.50;4.63;;;;;;;;;;4980235;28;20030;-93
2022/04/26 19:47:49;;;;;;;14.63;4.72;;;;;;;;;;4980057;28;20086;-94
2022/04/26 19:53:05;;;;;;;10.32;4.75;;;;;;;;;;4960617;28;20380;-93
2022/04/26 19:55:31;;;;;;;10.18;4.63;;;;;;;;;;4979847;28;20026;-93
2022/04/26 19:57:57;;;;;;;11.50;4.50;;;;;;;;;;4980572;28;20029;-92
2022/04/26 20:00:23;;;;;;;10.93;4.88;;;;;;;;;;4979853;28;20386;-92
2022/04/26 20:02:49;;;;;;;7.07;4.10;;;;;;;;;;4979828;28;20033;-93
2022/04/26 20:05:16;;;;;;;9.75;4.80;;;;;;;;;;4979821;28;20165;-95
2022/04/26 20:07:43;;;;;;;9.27;4.88;;;;;;;;;;4979651;28;20502;-92
2022/04/26 20:10:10;;;;;;;12.30;6.25;;;;;;;;;;4979850;28;20488;-92
2022/04/26 20:12:37;;;;;;;11.18;6.20;;;;;;;;;;4979509;28;20545;-92
2022/04/26 20:15:04;;;;;;;21.15;5.80;;;;;;;;;;4979522;28;20026;-92
2022/04/26 20:17:32;;;;;;;11.07;5.63;;;;;;;;;;4979478;28;20027;-92
2022/04/26 20:19:58;;;;;;;8.82;4.80;;;;;;;;;;4979955;28;20090;-94
2022/04/26 20:22:27;;;;;;;9.10;4.95;;;;;;;;;;4979334;28;20030;-93
2022/04/26 20:24:53;;;;;;;10.38;4.95;;;;;;;;;;4979760;28;20018;-93
2022/04/26 20:30:05;;;;;;;10.07;5.18;;;;;;;;;;4996811;28;20442;-93
2022/04/26 20:32:31;;;;;;;13.30;5.20;;;;;;;;;;4979232;28;20092;-92
2022/04/26 20:34:57;;;;;;;7.78;4.50;;;;;;;;;;4979338;28;20041;-92
2022/04/26 20:37:24;;;;;;;11.00;5.78;;;;;;;;;;4979151;28;20533;-92
2022/04/26 20:39:50;;;;;;;10.15;5.97;;;;;;;;;;4979077;28;20086;-92
2022/04/26 20:42:19;;;;;;;10.35;5.60;;;;;;;;;;4978953;28;20398;-92
2022/04/26 20:44:45;;;;;;;9.18;5.80;;;;;;;;;;4979014;28;20026;-92
2022/04/26 20:47:13;;;;;;;7.10;5.35;;;;;;;;;;4979104;28;20097;-91
2022/04/26 20:49:39;;;;;;;17.70;5.70;;;;;;;;;;4978793;28;20019;-92
2022/04/26 20:52:06;;;;;;;12.95;6.10;;;;;;;;;;4978858;28;20117;-92